Time;durP1;ratioP1;P1;durP2;ratioP2;P2;SDS_P1;SDS_P2;PMS_P1;PMS_P2;Temp;Humidity;BMP_temperature;BMP_pressure;BME280_temperature;BME280_humidity;BME280_pressure;Samples;Min_cycle;Max_cycle;Signal;HPM_P1;HPM_P2
2022/12/16 00:02:13;;;;;;;;;49.75;38.25;;;;;1.03;60.26;100652.91;4995521;28;45708;-74
2022/12/16 00:04:38;;;;;;;;;43.25;37.75;;;;;1.14;59.83;100675.72;4981001;28;47073;-74
2022/12/16 00:07:03;;;;;;;;;50.25;43.25;;;;;1.23;60.18;100687.28;4980609;28;45382;-74
2022/12/16 00:09:29;;;;;;;;;49.00;41.75;;;;;1.19;60.22;100685.41;4998575;28;45299;-75
2022/12/16 00:11:54;;;;;;;;;57.50;43.25;;;;;1.12;60.13;100682.53;4979060;28;45476;-74
2022/12/16 00:14:20;;;;;;;;;38.50;32.00;;;;;1.19;60.55;100697.47;4980299;28;48487;-75
2022/12/16 00:16:45;;;;;;;;;51.25;43.00;;;;;1.15;61.12;100703.38;4994987;28;46808;-74
2022/12/16 00:19:11;;;;;;;;;50.25;40.75;;;;;1.09;60.66;100706.66;4973887;28;45333;-75
2022/12/16 00:21:36;;;;;;;;;46.25;40.00;;;;;0.97;60.70;100698.47;4980350;28;45562;-74
2022/12/16 00:24:02;;;;;;;;;25.75;18.00;;;;;0.98;60.45;100708.88;4977622;28;47820;-74
2022/12/16 00:26:30;;;;;;;;;47.50;40.00;;;;;0.92;60.77;100707.81;4991909;28;45733;-74
2022/12/16 00:28:55;;;;;;;;;45.50;41.50;;;;;0.78;61.34;100692.66;4982392;28;45568;-77
2022/12/16 00:31:22;;;;;;;;;48.00;42.50;;;;;0.77;61.08;100706.41;4990702;28;45567;-75
2022/12/16 00:33:47;;;;;;;;;43.50;38.75;;;;;0.73;61.07;100708.88;4978169;28;45479;-75
2022/12/16 00:36:13;;;;;;;;;54.25;45.50;;;;;0.67;61.64;100701.75;4980585;28;45428;-75
2022/12/16 00:38:38;;;;;;;;;45.25;41.75;;;;;0.66;61.34;100700.84;4977582;28;45362;-75
2022/12/16 00:41:04;;;;;;;;;54.25;44.25;;;;;0.73;62.02;100716.63;4990563;28;45877;-75
2022/12/16 00:43:29;;;;;;;;;48.00;38.75;;;;;0.70;61.97;100706.19;4961049;28;46905;-75
2022/12/16 00:45:54;;;;;;;;;43.50;42.50;;;;;0.60;61.76;100698.06;4976966;28;45788;-75
2022/12/16 00:48:24;;;;;;;;;54.25;44.75;;;;;0.66;62.10;100707.75;4964038;28;45383;-75
2022/12/16 00:50:54;;;;;;;;;45.25;37.75;;;;;0.57;62.72;100699.66;4992238;28;45405;-75
2022/12/16 00:53:20;;;;;;;;;52.75;42.00;;;;;0.69;62.34;100720.81;4978851;28;47516;-75
2022/12/16 00:55:45;;;;;;;;;43.50;39.50;;;;;0.61;62.22;100705.00;4980650;28;45515;-76
2022/12/16 00:58:12;;;;;;;;;47.00;40.50;;;;;0.67;62.17;100719.91;4963738;28;45368;-75
2022/12/16 01:00:37;;;;;;;;;51.00;43.50;;;;;0.58;62.64;100719.56;4977677;28;45634;-75
2022/12/16 01:03:03;;;;;;;;;54.75;44.00;;;;;0.58;62.76;100720.44;4992892;28;46734;-75
2022/12/16 01:05:29;;;;;;;;;46.00;39.25;;;;;0.50;61.90;100724.44;4998008;28;45258;-75
2022/12/16 01:07:54;;;;;;;;;53.00;44.00;;;;;0.46;62.36;100729.47;4993018;28;45974;-75
2022/12/16 01:10:22;;;;;;;;;43.25;38.50;;;;;0.42;62.81;100726.75;4982888;28;45480;-75
2022/12/16 01:12:48;;;;;;;;;54.25;45.50;;;;;0.44;62.65;100748.41;4964857;28;47073;-75
2022/12/16 01:15:15;;;;;;;;;60.50;46.00;;;;;0.45;62.32;100757.06;4965161;28;45246;-75
2022/12/16 01:17:40;;;;;;;;;17.75;13.50;;;;;0.38;63.03;100753.38;4983054;28;45258;-75
2022/12/16 01:20:07;;;;;;;;;55.00;48.00;;;;;0.26;63.11;100746.84;4982569;28;45307;-75
2022/12/16 01:22:33;;;;;;;;;58.75;48.50;;;;;0.22;63.25;100754.50;4965360;28;48257;-75
2022/12/16 01:24:59;;;;;;;;;62.25;46.00;;;;;0.25;63.27;100758.03;4965098;28;45330;-75
2022/12/16 01:27:25;;;;;;;;;58.50;46.75;;;;;0.19;63.12;100759.56;4996942;28;45469;-75
2022/12/16 01:29:51;;;;;;;;;57.00;47.50;;;;;0.19;63.53;100764.75;5006948;28;45451;-75
2022/12/16 01:32:17;;;;;;;;;56.50;45.25;;;;;0.18;62.92;100778.50;4964886;28;48336;-76
2022/12/16 01:34:42;;;;;;;;;55.50;46.25;;;;;0.08;63.15;100770.31;4982436;28;45337;-76
2022/12/16 01:37:11;;;;;;;;;62.75;50.25;;;;;-0.02;63.43;100774.25;4981625;28;45598;-76
2022/12/16 01:39:37;;;;;;;;;63.00;49.75;;;;;-0.02;63.54;100779.44;4982433;28;45292;-76
2022/12/16 01:42:03;;;;;;;;;62.50;48.75;;;;;0.02;63.34;100794.25;4982430;28;45349;-76
2022/12/16 01:44:28;;;;;;;;;59.00;47.00;;;;;-0.08;63.48;100790.44;4982370;28;45314;-76
2022/12/16 01:47:03;;;;;;;;;62.50;50.00;;;;;-0.23;63.76;100764.81;4964918;28;45714;-76
2022/12/16 01:50:01;;;;;;;;;59.00;45.75;;;;;-0.15;64.07;100793.59;4980826;28;45552;-76
2022/12/16 01:52:35;;;;;;;;;63.25;51.25;;;;;-0.15;64.32;100800.47;4980845;28;47233;-76
2022/12/16 01:55:11;;;;;;;;;58.25;49.50;;;;;-0.20;64.29;100799.41;4964769;28;45371;-76
2022/12/16 01:57:44;;;;;;;;;63.50;50.75;;;;;-0.25;64.53;100797.50;4980828;28;45407;-76
2022/12/16 02:00:11;;;;;;;;;59.75;50.50;;;;;-0.21;64.92;100811.47;4964596;28;45637;-76
2022/12/16 02:02:37;;;;;;;;;68.25;53.25;;;;;-0.26;64.79;100803.50;4980625;28;45452;-76
2022/12/16 02:05:19;;;;;;;;;64.75;51.25;;;;;-0.30;64.76;100811.06;4976041;28;45401;-76
2022/12/16 02:07:55;;;;;;;;;61.75;47.25;;;;;-0.30;64.87;100803.31;4993357;28;45427;-76
2022/12/16 02:10:27;;;;;;;;;58.50;46.25;;;;;-0.20;64.87;100825.28;4995065;28;45281;-76
2022/12/16 02:13:14;;;;;;;;;62.50;48.00;;;;;-0.24;64.86;100821.69;4981924;28;45212;-76
2022/12/16 02:16:24;;;;;;;;;60.50;50.50;;;;;-0.24;65.15;100812.22;4987900;28;45360;-76
2022/12/16 02:18:55;;;;;;;;;64.25;54.00;;;;;-0.13;65.17;100830.75;4958024;28;45305;-76
2022/12/16 02:21:33;;;;;;;;;48.50;45.25;;;;;-0.24;65.75;100803.56;4990786;28;45347;-76
2022/12/16 02:24:28;;;;;;;;;59.00;48.00;;;;;-0.12;65.79;100818.69;4982014;28;46379;-75
2022/12/16 02:27:30;;;;;;;;;63.75;50.00;;;;;-0.12;65.89;100819.56;4953126;28;45349;-76
2022/12/16 02:29:58;;;;;;;;;58.75;50.00;;;;;-0.11;65.21;100826.50;5006645;28;45441;-76
2022/12/16 02:32:45;;;;;;;;;58.25;47.75;;;;;-0.09;66.06;100824.88;4993148;28;45358;-75
2022/12/16 02:35:31;;;;;;;;;59.00;48.25;;;;;-0.21;65.94;100808.88;4977626;28;47454;-75
2022/12/16 02:38:34;;;;;;;;;58.75;46.00;;;;;-0.10;66.14;100833.47;4994872;28;45230;-76
2022/12/16 02:41:10;;;;;;;;;50.75;42.50;;;;;-0.11;65.76;100823.91;4973283;28;45379;-76
2022/12/16 02:43:53;;;;;;;;;59.50;50.50;;;;;-0.10;65.48;100828.28;4963656;28;45388;-76
2022/12/16 02:46:22;;;;;;;;;64.50;52.25;;;;;-0.08;65.85;100826.66;4994477;28;46160;-76
2022/12/16 02:48:48;;;;;;;;;67.00;49.75;;;;;-0.22;65.85;100820.03;4981224;28;45199;-76
2022/12/16 02:51:14;;;;;;;;;64.50;50.50;;;;;-0.17;65.59;100823.69;4985343;28;45302;-76
2022/12/16 02:53:42;;;;;;;;;64.75;50.00;;;;;-0.15;66.17;100823.75;4972816;28;45945;-76
2022/12/16 02:56:22;;;;;;;;;57.00;50.75;;;;;-0.08;66.59;100837.00;4994029;28;45454;-76
2022/12/16 02:59:04;;;;;;;;;64.00;50.25;;;;;-0.08;66.13;100842.19;4981443;28;45282;-76
2022/12/16 03:01:42;;;;;;;;;59.00;48.00;;;;;-0.18;66.78;100821.94;4981524;28;45666;-75
2022/12/16 03:04:26;;;;;;;;;63.25;49.75;;;;;-0.07;66.41;100841.34;4976999;28;45475;-76
2022/12/16 03:06:55;;;;;;;;;61.00;50.00;;;;;-0.07;66.95;100843.94;4976358;28;47499;-76
2022/12/16 03:09:26;;;;;;;;;63.75;49.25;;;;;-0.09;66.22;100842.09;4981206;28;45443;-76
2022/12/16 03:11:54;;;;;;;;;63.00;50.50;;;;;-0.05;66.86;100842.31;4980959;28;45515;-76
2022/12/16 03:14:24;;;;;;;;;59.25;50.50;;;;;-0.06;66.93;100843.09;4980934;28;45374;-76
2022/12/16 03:16:50;;;;;;;;;60.25;50.00;;;;;-0.07;67.17;100843.94;4980817;28;45373;-76
2022/12/16 03:19:19;;;;;;;;;69.50;54.50;;;;;-0.05;66.48;100846.59;4980864;28;45196;-76
2022/12/16 03:21:55;;;;;;;;;60.75;48.25;;;;;-0.07;66.78;100837.88;4963472;28;45453;-75
2022/12/16 03:24:20;;;;;;;;;63.75;49.75;;;;;-0.15;66.93;100821.16;4970744;28;45827;-75
2022/12/16 03:27:07;;;;;;;;;63.75;48.00;;;;;-0.04;67.17;100848.34;4997374;28;46460;-76
2022/12/16 03:29:40;;;;;;;;;54.75;46.75;;;;;-0.13;66.66;100835.06;5008410;28;45351;-76
2022/12/16 03:32:22;;;;;;;;;56.75;48.00;;;;;-0.15;66.71;100842.75;4981009;28;45416;-76
2022/12/16 03:34:55;;;;;;;;;59.00;49.25;;;;;-0.07;67.20;100856.00;4980720;28;45318;-76
2022/12/16 03:37:25;;;;;;;;;57.00;46.00;;;;;-0.08;66.79;100870.66;4969358;28;47951;-76
2022/12/16 03:39:55;;;;;;;;;50.25;43.75;;;;;-0.09;66.88;100867.97;4993717;28;45430;-76
2022/12/16 03:42:22;;;;;;;;;53.50;45.00;;;;;-0.09;67.03;100873.16;4963343;28;45195;-76
2022/12/16 03:44:49;;;;;;;;;58.25;47.75;;;;;-0.11;67.15;100870.50;4980656;28;45229;-76
2022/12/16 03:47:14;;;;;;;;;59.00;47.50;;;;;-0.16;67.36;100877.22;4992038;28;45799;-76
2022/12/16 03:49:40;;;;;;;;;62.25;47.00;;;;;-0.17;66.80;100862.50;4977362;28;45512;-76
2022/12/16 03:52:05;;;;;;;;;58.50;51.00;;;;;-0.18;67.01;100865.03;4971224;28;45523;-76
2022/12/16 03:54:31;;;;;;;;;55.50;43.00;;;;;-0.18;66.96;100859.84;4980506;28;45326;-76
2022/12/16 03:56:56;;;;;;;;;72.00;56.00;;;;;-0.20;66.89;100856.31;4980456;28;45348;-76
2022/12/16 03:59:22;;;;;;;;;74.75;59.25;;;;;-0.31;67.19;100837.75;4962614;28;45358;-77
2022/12/16 04:01:48;;;;;;;;;69.25;55.25;;;;;-0.28;66.95;100856.00;4979282;28;45328;-76
2022/12/16 04:04:14;;;;;;;;;46.75;32.75;;;;;-0.18;67.02;100881.44;4990144;28;45313;-76
2022/12/16 04:06:40;;;;;;;;;68.25;53.50;;;;;-0.24;67.87;100869.13;4990074;28;45694;-76
2022/12/16 04:09:05;;;;;;;;;67.50;55.25;;;;;-0.33;66.86;100860.09;4982131;28;45302;-76
2022/12/16 04:25:27;;;;;;;;;55.50;45.25;;;;;-0.12;67.82;100904.09;4961574;28;45235;-76
2022/12/16 04:27:52;;;;;;;;;56.50;46.50;;;;;-0.08;68.04;100909.47;4985500;28;45458;-76
2022/12/16 04:30:19;;;;;;;;;59.00;50.50;;;;;-0.16;67.98;100886.66;4997120;28;45396;-76
